Time;durP1;ratioP1;P1;durP2;ratioP2;P2;SDS_P1;SDS_P2;PMS_P1;PMS_P2;Temp;Humidity;BMP_temperature;BMP_pressure;BME280_temperature;BME280_humidity;BME280_pressure;Samples;Min_cycle;Max_cycle;Signal;HPM_P1;HPM_P2
2022/06/05 00:01:52;;;;;;;6.23;4.30;;;;;;;;;;5009736;28;20196;-80
2022/06/05 00:04:35;;;;;;;6.53;4.67;;;;;;;;;;5010021;28;20195;-81
2022/06/05 00:07:07;;;;;;;6.23;4.40;;;;;;;;;;5019966;28;20203;-80
2022/06/05 00:09:39;;;;;;;6.30;4.60;;;;;;;;;;5011401;28;20624;-80
2022/06/05 00:12:11;;;;;;;5.53;5.03;;;;;;;;;;5010525;28;20286;-80
2022/06/05 00:14:39;;;;;;;4.93;4.60;;;;;;;;;;5010380;28;20249;-80
2022/06/05 00:17:09;;;;;;;4.60;4.20;;;;;;;;;;5015291;28;20283;-81
2022/06/05 00:19:37;;;;;;;5.63;5.13;;;;;;;;;;5015442;28;20724;-81
2022/06/05 00:22:06;;;;;;;5.30;4.90;;;;;;;;;;5010263;28;20672;-80
2022/06/05 00:24:33;;;;;;;5.60;4.20;;;;;;;;;;5009717;28;20595;-80
2022/06/05 00:27:04;;;;;;;5.73;4.07;;;;;;;;;;5010486;28;20200;-80
2022/06/05 00:29:58;;;;;;;5.50;4.40;;;;;;;;;;5023497;28;20249;-80
2022/06/05 00:32:29;;;;;;;4.33;4.03;;;;;;;;;;5010054;28;20257;-80
2022/06/05 00:34:56;;;;;;;4.47;3.77;;;;;;;;;;5009918;28;20248;-80
2022/06/05 00:37:32;;;;;;;4.60;4.30;;;;;;;;;;5010237;28;20196;-80
2022/06/05 00:40:07;;;;;;;4.67;4.20;;;;;;;;;;5009617;28;20195;-80
2022/06/05 00:42:35;;;;;;;5.23;4.73;;;;;;;;;;5012372;28;20736;-80
2022/06/05 00:45:07;;;;;;;4.47;4.07;;;;;;;;;;5018288;28;20237;-80
2022/06/05 00:47:34;;;;;;;4.93;4.50;;;;;;;;;;5009861;28;20192;-80
2022/06/05 00:50:08;;;;;;;7.73;4.70;;;;;;;;;;5009894;28;20195;-80
2022/06/05 00:52:39;;;;;;;6.00;5.00;;;;;;;;;;5009792;28;20204;-80
2022/06/05 00:55:07;;;;;;;6.63;4.90;;;;;;;;;;5009973;28;20188;-80
2022/06/05 00:57:36;;;;;;;5.00;4.60;;;;;;;;;;5020054;28;20676;-81
2022/06/05 01:00:09;;;;;;;5.47;5.03;;;;;;;;;;5009701;28;20561;-81
2022/06/05 01:02:36;;;;;;;4.60;4.30;;;;;;;;;;5009770;28;20701;-81
2022/06/05 01:05:03;;;;;;;4.97;4.47;;;;;;;;;;5009242;28;20204;-80
2022/06/05 01:07:30;;;;;;;5.30;4.80;;;;;;;;;;5018035;28;20207;-80
2022/06/05 01:09:59;;;;;;;6.07;4.87;;;;;;;;;;5009232;28;20295;-81
2022/06/05 01:12:34;;;;;;;4.93;4.43;;;;;;;;;;5009421;28;20220;-80
2022/06/05 01:15:10;;;;;;;5.47;4.67;;;;;;;;;;5008332;28;20195;-80
2022/06/05 01:17:41;;;;;;;6.93;4.87;;;;;;;;;;5019078;28;20202;-81
2022/06/05 01:20:17;;;;;;;5.00;4.40;;;;;;;;;;5028871;28;20194;-82
2022/06/05 01:23:14;;;;;;;6.27;5.10;;;;;;;;;;5015886;28;20750;-80
2022/06/05 01:26:03;;;;;;;4.83;4.43;;;;;;;;;;5009526;28;20204;-80
2022/06/05 01:28:32;;;;;;;5.33;4.60;;;;;;;;;;5020053;28;20639;-80
2022/06/05 01:31:10;;;;;;;5.93;5.33;;;;;;;;;;5009176;28;20196;-80
2022/06/05 01:33:41;;;;;;;6.57;5.27;;;;;;;;;;5009494;28;20192;-80
2022/06/05 01:36:11;;;;;;;5.10;4.70;;;;;;;;;;5009536;28;20232;-81
2022/06/05 01:38:47;;;;;;;6.67;5.20;;;;;;;;;;5008592;28;20204;-80
2022/06/05 01:41:18;;;;;;;5.30;4.80;;;;;;;;;;5012081;28;20205;-80
2022/06/05 01:43:49;;;;;;;6.93;5.53;;;;;;;;;;5018350;28;20207;-81
2022/06/05 01:46:19;;;;;;;4.90;4.57;;;;;;;;;;5009122;28;20184;-80
2022/06/05 01:48:51;;;;;;;5.70;4.53;;;;;;;;;;5008890;28;20260;-80
2022/06/05 01:51:23;;;;;;;6.27;5.10;;;;;;;;;;5009164;28;20235;-80
2022/06/05 01:53:53;;;;;;;4.90;4.50;;;;;;;;;;5009143;28;20196;-80
2022/06/05 01:56:24;;;;;;;4.63;4.33;;;;;;;;;;5011834;28;20275;-80
2022/06/05 01:58:53;;;;;;;6.20;4.57;;;;;;;;;;5020727;28;20204;-80
2022/06/05 02:01:23;;;;;;;10.50;4.97;;;;;;;;;;5008868;28;20253;-80
2022/06/05 02:03:54;;;;;;;4.83;4.50;;;;;;;;;;5008598;28;20199;-80
2022/06/05 02:06:22;;;;;;;5.83;4.50;;;;;;;;;;5011601;28;20202;-80
2022/06/05 02:08:52;;;;;;;6.10;4.33;;;;;;;;;;5017001;28;20203;-81
2022/06/05 02:11:22;;;;;;;6.77;4.33;;;;;;;;;;5009019;28;20261;-80
2022/06/05 02:13:50;;;;;;;5.90;5.30;;;;;;;;;;5008552;28;20213;-80
2022/06/05 02:16:17;;;;;;;5.23;4.73;;;;;;;;;;5008933;28;20219;-80
2022/06/05 02:18:45;;;;;;;7.37;5.20;;;;;;;;;;5008367;28;20199;-80
2022/06/05 02:21:12;;;;;;;8.03;4.70;;;;;;;;;;5012167;28;20208;-80
2022/06/05 02:23:40;;;;;;;4.37;3.97;;;;;;;;;;5021486;28;20204;-80
2022/06/05 02:26:09;;;;;;;4.83;4.43;;;;;;;;;;5010621;28;20206;-80
2022/06/05 02:28:38;;;;;;;4.40;4.00;;;;;;;;;;5011777;28;20203;-80
2022/06/05 02:31:12;;;;;;;5.47;4.67;;;;;;;;;;5011841;28;20404;-80
2022/06/05 02:33:45;;;;;;;5.10;4.63;;;;;;;;;;5011970;28;20231;-80
2022/06/05 02:36:18;;;;;;;4.90;4.50;;;;;;;;;;5015437;28;20206;-81
2022/06/05 02:39:01;;;;;;;5.77;4.97;;;;;;;;;;5018865;28;20199;-80
2022/06/05 02:41:33;;;;;;;5.00;4.47;;;;;;;;;;5011999;28;20183;-80
2022/06/05 02:47:01;;;;;;;5.37;4.43;;;;;;;;;;5018491;28;20283;-80
2022/06/05 02:49:31;;;;;;;7.27;4.63;;;;;;;;;;5015854;28;20203;-81
2022/06/05 02:52:03;;;;;;;5.67;4.50;;;;;;;;;;5011615;28;20231;-81
2022/06/05 02:54:31;;;;;;;5.70;5.20;;;;;;;;;;5011648;28;20187;-80
2022/06/05 02:56:58;;;;;;;7.13;5.10;;;;;;;;;;5016954;28;20728;-80
2022/06/05 02:59:27;;;;;;;6.40;5.33;;;;;;;;;;5017051;28;20267;-81
2022/06/05 03:04:39;;;;;;;5.53;5.03;;;;;;;;;;5011530;28;20589;-80
2022/06/05 03:07:06;;;;;;;6.27;5.67;;;;;;;;;;5016170;28;20204;-80
2022/06/05 03:09:34;;;;;;;6.73;5.50;;;;;;;;;;5018563;28;20680;-80
2022/06/05 03:12:01;;;;;;;6.50;5.73;;;;;;;;;;5011383;28;20227;-80
2022/06/05 03:14:30;;;;;;;6.87;5.30;;;;;;;;;;5025020;28;20211;-81
2022/06/05 03:16:57;;;;;;;9.07;5.50;;;;;;;;;;5019176;28;20211;-80
2022/06/05 03:19:24;;;;;;;6.23;5.43;;;;;;;;;;5011081;28;20253;-80
2022/06/05 03:21:51;;;;;;;7.23;5.20;;;;;;;;;;5020235;28;20244;-80
2022/06/05 03:24:18;;;;;;;7.87;5.83;;;;;;;;;;5027136;28;20736;-80
2022/06/05 03:26:45;;;;;;;7.00;6.20;;;;;;;;;;5031369;28;20202;-80
2022/06/05 03:29:12;;;;;;;9.47;6.50;;;;;;;;;;5029726;28;20216;-80
2022/06/05 03:31:41;;;;;;;8.43;6.60;;;;;;;;;;5011336;28;20204;-80
2022/06/05 03:34:08;;;;;;;6.53;5.93;;;;;;;;;;5010967;28;20219;-80
2022/06/05 03:36:35;;;;;;;7.77;6.97;;;;;;;;;;5012849;28;20581;-80
2022/06/05 03:39:02;;;;;;;7.63;6.90;;;;;;;;;;5019627;28;20215;-80
2022/06/05 03:41:29;;;;;;;7.77;6.40;;;;;;;;;;5010788;28;20676;-80
2022/06/05 03:43:56;;;;;;;8.20;7.40;;;;;;;;;;5010702;28;20199;-80
2022/06/05 03:46:23;;;;;;;7.57;6.67;;;;;;;;;;5011002;28;20231;-80
2022/06/05 03:48:52;;;;;;;6.97;6.37;;;;;;;;;;5009795;28;20588;-83
2022/06/05 03:51:20;;;;;;;7.83;6.57;;;;;;;;;;5013359;28;20266;-82
2022/06/05 03:53:48;;;;;;;10.63;6.87;;;;;;;;;;5018139;28;20327;-83
2022/06/05 03:56:17;;;;;;;7.60;6.90;;;;;;;;;;5010659;28;20202;-83
2022/06/05 03:58:45;;;;;;;7.97;7.17;;;;;;;;;;5013704;28;20199;-81
2022/06/05 04:01:13;;;;;;;7.67;7.00;;;;;;;;;;5014100;28;20223;-83
2022/06/05 04:03:41;;;;;;;8.20;7.53;;;;;;;;;;5010136;28;20261;-83
2022/06/05 04:06:11;;;;;;;7.43;6.70;;;;;;;;;;5010593;28;20203;-83
2022/06/05 04:08:39;;;;;;;8.30;7.63;;;;;;;;;;5010374;28;20256;-83
2022/06/05 04:11:06;;;;;;;6.83;6.13;;;;;;;;;;5017161;28;20251;-83
2022/06/05 04:13:33;;;;;;;7.07;6.40;;;;;;;;;;5022229;28;20254;-83
2022/06/05 04:16:00;;;;;;;9.23;7.07;;;;;;;;;;5030487;28;20195;-83
2022/06/05 04:18:28;;;;;;;7.20;6.50;;;;;;;;;;5030006;28;20198;-83
2022/06/05 04:20:55;;;;;;;7.33;6.73;;;;;;;;;;5022964;28;20225;-83
2022/06/05 04:23:23;;;;;;;7.70;7.00;;;;;;;;;;5016277;28;20207;-83
2022/06/05 04:25:50;;;;;;;7.83;6.80;;;;;;;;;;5009313;28;20335;-83
2022/06/05 04:28:17;;;;;;;8.83;6.80;;;;;;;;;;5009120;28;20235;-83
2022/06/05 04:30:44;;;;;;;7.60;6.93;;;;;;;;;;5009026;28;20907;-83
2022/06/05 04:33:11;;;;;;;6.60;5.80;;;;;;;;;;5008814;28;20219;-83
2022/06/05 04:35:38;;;;;;;8.20;7.50;;;;;;;;;;5009032;28;20252;-83
2022/06/05 04:38:05;;;;;;;7.73;6.90;;;;;;;;;;5008896;28;20279;-83
2022/06/05 04:40:34;;;;;;;8.50;6.80;;;;;;;;;;5008898;28;20691;-83
2022/06/05 04:43:01;;;;;;;7.93;7.00;;;;;;;;;;5009035;28;20855;-83
2022/06/05 04:45:28;;;;;;;8.37;6.37;;;;;;;;;;5009253;28;20210;-82
2022/06/05 04:47:55;;;;;;;6.97;6.47;;;;;;;;;;5008657;28;20199;-82
2022/06/05 04:50:22;;;;;;;6.87;6.27;;;;;;;;;;5008251;28;20239;-83
2022/06/05 04:52:49;;;;;;;7.03;6.33;;;;;;;;;;5008803;28;20582;-83
2022/06/05 04:55:16;;;;;;;8.37;6.70;;;;;;;;;;5008742;28;20204;-83
2022/06/05 04:57:45;;;;;;;8.93;6.47;;;;;;;;;;5009085;28;20200;-83
2022/06/05 05:00:13;;;;;;;9.60;7.20;;;;;;;;;;5008986;28;20639;-83
2022/06/05 05:02:40;;;;;;;7.13;6.33;;;;;;;;;;5008234;28;20196;-83
2022/06/05 05:05:08;;;;;;;6.30;5.70;;;;;;;;;;5008585;28;20207;-83
2022/06/05 05:07:35;;;;;;;6.57;5.97;;;;;;;;;;5008524;28;20622;-83
2022/06/05 05:10:02;;;;;;;5.27;4.87;;;;;;;;;;5008483;28;20201;-84
2022/06/05 05:12:29;;;;;;;6.73;5.93;;;;;;;;;;5008430;28;20226;-82
2022/06/05 05:14:58;;;;;;;6.77;5.90;;;;;;;;;;5008455;28;20208;-83
2022/06/05 05:17:25;;;;;;;7.03;5.83;;;;;;;;;;5008727;28;20260;-83
2022/06/05 05:19:52;;;;;;;7.10;6.53;;;;;;;;;;5008464;28;20235;-83
2022/06/05 05:22:19;;;;;;;6.67;5.60;;;;;;;;;;5008504;28;20252;-83
2022/06/05 05:24:46;;;;;;;6.70;6.20;;;;;;;;;;5008544;28;20203;-83
2022/06/05 05:27:13;;;;;;;6.67;6.07;;;;;;;;;;5008688;28;20203;-83
2022/06/05 05:29:40;;;;;;;7.73;5.63;;;;;;;;;;5008477;28;20199;-83
2022/06/05 05:32:10;;;;;;;5.83;5.30;;;;;;;;;;5008388;28;20305;-83
2022/06/05 05:34:39;;;;;;;6.43;5.80;;;;;;;;;;5008515;28;20253;-83
2022/06/05 05:37:06;;;;;;;9.67;5.77;;;;;;;;;;5008813;28;20228;-84
2022/06/05 05:42:18;;;;;;;7.33;6.60;;;;;;;;;;5007964;28;20198;-84
2022/06/05 05:44:47;;;;;;;6.40;5.90;;;;;;;;;;5008516;28;20199;-84
2022/06/05 05:47:17;;;;;;;6.10;5.50;;;;;;;;;;5008660;28;20253;-84
2022/06/05 05:49:45;;;;;;;8.77;5.50;;;;;;;;;;5008263;28;20192;-84
2022/06/05 05:52:12;;;;;;;7.83;6.37;;;;;;;;;;5008613;28;20248;-83
2022/06/05 05:54:40;;;;;;;8.83;6.10;;;;;;;;;;5008003;28;20272;-83
2022/06/05 05:57:08;;;;;;;11.07;6.67;;;;;;;;;;5008385;28;20199;-84
2022/06/05 05:59:35;;;;;;;6.60;6.07;;;;;;;;;;5008646;28;20638;-84
2022/06/05 06:02:02;;;;;;;7.30;6.33;;;;;;;;;;5012741;28;20225;-84
2022/06/05 06:04:31;;;;;;;6.10;5.57;;;;;;;;;;5012504;28;20613;-84
2022/06/05 06:06:58;;;;;;;12.73;5.93;;;;;;;;;;5012658;28;20200;-85
2022/06/05 06:09:25;;;;;;;6.53;5.40;;;;;;;;;;5012532;28;20203;-84
2022/06/05 06:11:52;;;;;;;9.10;6.33;;;;;;;;;;5012706;28;20637;-85
2022/06/05 06:14:19;;;;;;;8.63;6.27;;;;;;;;;;5012376;28;20707;-85
2022/06/05 06:16:46;;;;;;;9.40;6.17;;;;;;;;;;5012703;28;20260;-86
2022/06/05 06:19:13;;;;;;;6.77;6.17;;;;;;;;;;5012318;28;20191;-84
2022/06/05 06:21:41;;;;;;;8.67;6.17;;;;;;;;;;5012834;28;20272;-86
2022/06/05 06:24:08;;;;;;;8.37;6.63;;;;;;;;;;5011982;28;20249;-84
2022/06/05 06:26:35;;;;;;;6.63;6.07;;;;;;;;;;5011874;28;20231;-84
2022/06/05 06:29:02;;;;;;;10.73;7.07;;;;;;;;;;5012440;28;20257;-84
2022/06/05 06:31:29;;;;;;;6.87;6.23;;;;;;;;;;5012282;28;20208;-86
2022/06/05 06:33:56;;;;;;;6.13;5.67;;;;;;;;;;5011900;28;20775;-85
2022/06/05 06:36:23;;;;;;;8.03;5.90;;;;;;;;;;5011881;28;20291;-86
2022/06/05 06:38:52;;;;;;;7.30;6.57;;;;;;;;;;5012327;28;20199;-84
2022/06/05 06:41:20;;;;;;;9.07;6.63;;;;;;;;;;5011869;28;20215;-84
2022/06/05 06:43:47;;;;;;;6.73;6.03;;;;;;;;;;5011969;28;20257;-84
2022/06/05 06:46:15;;;;;;;8.27;6.27;;;;;;;;;;5011905;28;20676;-84
2022/06/05 06:48:42;;;;;;;13.13;6.70;;;;;;;;;;5011729;28;20260;-85
2022/06/05 06:51:10;;;;;;;7.03;6.33;;;;;;;;;;5011801;28;20256;-84
2022/06/05 06:53:38;;;;;;;7.30;6.53;;;;;;;;;;5011239;28;20223;-84
2022/06/05 06:56:12;;;;;;;7.27;6.63;;;;;;;;;;5011951;28;20212;-85
2022/06/05 06:58:40;;;;;;;7.03;6.43;;;;;;;;;;5012068;28;20671;-84
2022/06/05 07:01:07;;;;;;;7.50;6.17;;;;;;;;;;5011520;28;20257;-84
2022/06/05 07:03:35;;;;;;;7.53;6.70;;;;;;;;;;5011821;28;20199;-85
2022/06/05 07:06:02;;;;;;;9.33;6.97;;;;;;;;;;5011709;28;20199;-84
2022/06/05 07:08:29;;;;;;;7.03;6.30;;;;;;;;;;5011285;28;20200;-84
2022/06/05 07:10:56;;;;;;;7.53;6.33;;;;;;;;;;5011364;28;20295;-85
2022/06/05 07:13:24;;;;;;;8.07;7.33;;;;;;;;;;5011460;28;20220;-85
2022/06/05 07:15:51;;;;;;;10.00;6.47;;;;;;;;;;5011402;28;20203;-84
2022/06/05 07:18:19;;;;;;;7.80;7.10;;;;;;;;;;5011294;28;20860;-84
2022/06/05 07:20:47;;;;;;;7.27;6.50;;;;;;;;;;5011093;28;20203;-84
2022/06/05 07:23:14;;;;;;;7.13;6.53;;;;;;;;;;5025067;28;20207;-83
2022/06/05 07:25:47;;;;;;;7.87;6.17;;;;;;;;;;5030968;28;20648;-84
2022/06/05 07:28:14;;;;;;;6.93;6.33;;;;;;;;;;5015245;28;20276;-85
2022/06/05 07:30:46;;;;;;;6.93;6.33;;;;;;;;;;5011427;28;20203;-84
2022/06/05 07:33:13;;;;;;;7.47;6.40;;;;;;;;;;5011134;28;20245;-84
2022/06/05 07:35:41;;;;;;;8.53;6.50;;;;;;;;;;5010911;28;20196;-83
2022/06/05 07:38:08;;;;;;;8.87;6.33;;;;;;;;;;5011167;28;20257;-84
2022/06/05 07:40:39;;;;;;;7.33;6.60;;;;;;;;;;5011460;28;20268;-84
2022/06/05 07:43:09;;;;;;;7.47;6.87;;;;;;;;;;5010681;28;20188;-84
2022/06/05 07:45:36;;;;;;;6.73;6.07;;;;;;;;;;5010818;28;20203;-84
2022/06/05 07:48:06;;;;;;;7.23;6.40;;;;;;;;;;5010539;28;20688;-83
2022/06/05 07:50:33;;;;;;;6.87;6.27;;;;;;;;;;5010791;28;20292;-84
2022/06/05 07:55:45;;;;;;;8.03;7.33;;;;;;;;;;5011680;28;20264;-84
2022/06/05 07:58:12;;;;;;;7.70;7.00;;;;;;;;;;5010697;28;20199;-84
2022/06/05 08:00:39;;;;;;;7.70;7.10;;;;;;;;;;5009175;28;20260;-83
2022/06/05 08:03:07;;;;;;;9.27;5.93;;;;;;;;;;5009672;28;20204;-85
2022/06/05 08:05:34;;;;;;;8.43;7.23;;;;;;;;;;5027962;28;20199;-83
2022/06/05 08:08:01;;;;;;;6.93;6.30;;;;;;;;;;5030152;28;20661;-85
2022/06/05 08:10:28;;;;;;;6.03;5.43;;;;;;;;;;5030060;28;20275;-83
2022/06/05 08:12:56;;;;;;;5.33;4.90;;;;;;;;;;5030267;28;20226;-84
2022/06/05 08:15:23;;;;;;;6.60;4.33;;;;;;;;;;5030159;28;20227;-84
2022/06/05 08:17:50;;;;;;;6.40;5.83;;;;;;;;;;5030109;28;20268;-84
2022/06/05 08:20:19;;;;;;;6.23;5.07;;;;;;;;;;5029921;28;20225;-84
2022/06/05 08:22:46;;;;;;;6.65;5.35;;;;;;;;;;5029181;28;20198;-83
2022/06/05 08:25:14;;;;;;;5.50;5.00;;;;;;;;;;5030109;28;20190;-84
2022/06/05 08:27:41;;;;;;;8.82;5.15;;;;;;;;;;5026720;28;20202;-82
2022/06/05 08:30:09;;;;;;;5.97;5.47;;;;;;;;;;5028864;28;20202;-83
2022/06/05 08:32:36;;;;;;;5.93;4.43;;;;;;;;;;5028916;28;20203;-82
2022/06/05 08:35:03;;;;;;;7.43;5.63;;;;;;;;;;5028672;28;20317;-81
2022/06/05 08:43:12;;;;;;;8.77;5.38;;;;;;;;;;5028846;28;20197;-82
2022/06/05 08:45:43;;;;;;;7.35;5.20;;;;;;;;;;5028646;28;20204;-83
2022/06/05 08:48:20;;;;;;;7.00;5.55;;;;;;;;;;5028504;28;20214;-83
2022/06/05 08:50:48;;;;;;;8.95;6.03;;;;;;;;;;5028872;28;20238;-81
2022/06/05 08:53:22;;;;;;;5.55;4.85;;;;;;;;;;5028158;28;20209;-83
2022/06/05 08:55:52;;;;;;;6.55;5.55;;;;;;;;;;5028721;28;20234;-82
2022/06/05 08:58:24;;;;;;;7.45;5.75;;;;;;;;;;5028880;28;20194;-82
2022/06/05 09:00:55;;;;;;;5.70;5.22;;;;;;;;;;5029662;28;20289;-83
2022/06/05 09:03:26;;;;;;;6.32;5.72;;;;;;;;;;5029683;28;20203;-83
2022/06/05 09:05:56;;;;;;;6.38;5.88;;;;;;;;;;5029554;28;20610;-84
2022/06/05 09:08:27;;;;;;;6.72;5.70;;;;;;;;;;5029277;28;20198;-83
2022/06/05 09:10:57;;;;;;;6.80;6.20;;;;;;;;;;5029411;28;20636;-83
2022/06/05 09:13:29;;;;;;;5.45;5.05;;;;;;;;;;5029442;28;20202;-83
2022/06/05 09:15:59;;;;;;;6.53;5.88;;;;;;;;;;5028873;28;20223;-83
2022/06/05 09:18:35;;;;;;;6.13;5.50;;;;;;;;;;5029576;28;20202;-83
2022/06/05 09:21:05;;;;;;;6.55;5.95;;;;;;;;;;5029296;28;20190;-83
2022/06/05 09:23:36;;;;;;;6.60;5.85;;;;;;;;;;5029216;28;20183;-82
2022/06/05 09:26:10;;;;;;;9.48;5.50;;;;;;;;;;5029032;28;20187;-83
2022/06/05 09:29:00;;;;;;;6.22;5.68;;;;;;;;;;5029331;28;20191;-83
2022/06/05 09:31:41;;;;;;;6.00;5.50;;;;;;;;;;5029220;28;20183;-83
2022/06/05 09:34:12;;;;;;;9.13;5.75;;;;;;;;;;5029234;28;20218;-82
2022/06/05 09:36:41;;;;;;;6.40;5.68;;;;;;;;;;5032023;28;20723;-83
2022/06/05 09:39:16;;;;;;;6.93;5.80;;;;;;;;;;5032627;28;20199;-83
2022/06/05 09:41:50;;;;;;;6.35;5.75;;;;;;;;;;5032365;28;20202;-83
2022/06/05 09:44:28;;;;;;;6.18;5.68;;;;;;;;;;5023899;28;20194;-83
2022/06/05 09:47:00;;;;;;;6.65;6.05;;;;;;;;;;5013167;28;20187;-84
2022/06/05 09:49:34;;;;;;;6.68;5.65;;;;;;;;;;5012706;28;20199;-84
2022/06/05 09:52:11;;;;;;;7.55;5.60;;;;;;;;;;5012934;28;20321;-84
2022/06/05 09:54:43;;;;;;;6.38;5.75;;;;;;;;;;5012727;28;20214;-85
2022/06/05 10:00:14;;;;;;;7.45;5.55;;;;;;;;;;5012654;28;20179;-84
2022/06/05 10:02:42;;;;;;;6.22;5.72;;;;;;;;;;5013116;28;20286;-84
2022/06/05 10:05:13;;;;;;;6.18;5.60;;;;;;;;;;5026196;28;20202;-84
2022/06/05 10:07:45;;;;;;;5.78;5.25;;;;;;;;;;5032595;28;20686;-85
2022/06/05 10:10:19;;;;;;;6.03;5.53;;;;;;;;;;5032210;28;20183;-84
2022/06/05 10:12:50;;;;;;;6.03;5.30;;;;;;;;;;5032176;28;20289;-83
2022/06/05 10:15:22;;;;;;;5.20;4.80;;;;;;;;;;5032052;28;20211;-84
2022/06/05 10:17:51;;;;;;;7.10;5.00;;;;;;;;;;5031259;28;20191;-83
2022/06/05 10:20:36;;;;;;;5.32;4.82;;;;;;;;;;5031475;28;20199;-85
2022/06/05 10:23:12;;;;;;;9.07;4.35;;;;;;;;;;5031544;28;20635;-84
2022/06/05 10:25:45;;;;;;;6.35;5.75;;;;;;;;;;5030709;28;20628;-83
2022/06/05 10:28:14;;;;;;;7.32;5.50;;;;;;;;;;5030800;28;20203;-83
2022/06/05 10:30:52;;;;;;;9.00;5.60;;;;;;;;;;5031279;28;20206;-84
2022/06/05 10:33:28;;;;;;;6.40;5.00;;;;;;;;;;5031550;28;20191;-84
2022/06/05 10:36:01;;;;;;;5.97;5.35;;;;;;;;;;5031407;28;20202;-84
2022/06/05 10:38:36;;;;;;;5.57;5.07;;;;;;;;;;5031457;28;21006;-84
2022/06/05 10:41:12;;;;;;;6.15;4.68;;;;;;;;;;5031636;28;20198;-84
2022/06/05 10:43:39;;;;;;;5.10;4.63;;;;;;;;;;5030967;28;20187;-84
2022/06/05 10:46:08;;;;;;;4.53;3.95;;;;;;;;;;5030977;28;20728;-84
2022/06/05 10:48:45;;;;;;;6.15;4.45;;;;;;;;;;5030911;28;20251;-84
2022/06/05 10:51:23;;;;;;;4.53;3.78;;;;;;;;;;5016591;28;20291;-84
2022/06/05 10:53:55;;;;;;;4.85;4.18;;;;;;;;;;5011755;28;20187;-84
2022/06/05 10:56:31;;;;;;;5.07;4.50;;;;;;;;;;5010930;28;20207;-83
2022/06/05 10:59:06;;;;;;;5.15;4.65;;;;;;;;;;5011393;28;20557;-83
2022/06/05 11:01:44;;;;;;;4.32;3.78;;;;;;;;;;5011237;28;20218;-84
2022/06/05 11:07:20;;;;;;;6.32;4.47;;;;;;;;;;5015104;28;20210;-83
2022/06/05 11:09:50;;;;;;;6.22;5.35;;;;;;;;;;5010668;28;20237;-83
2022/06/05 11:15:13;;;;;;;6.32;4.70;;;;;;;;;;5010709;28;20360;-82
2022/06/05 11:17:49;;;;;;;5.18;4.68;;;;;;;;;;5010986;28;20187;-84
2022/06/05 11:20:18;;;;;;;4.53;4.18;;;;;;;;;;5011078;28;20180;-84
2022/06/05 11:22:54;;;;;;;4.97;4.47;;;;;;;;;;5011023;28;20196;-85
2022/06/05 11:25:30;;;;;;;9.10;4.70;;;;;;;;;;5010620;28;20708;-83
2022/06/05 11:28:22;;;;;;;6.25;4.45;;;;;;;;;;5011255;28;20192;-83
2022/06/05 11:31:04;;;;;;;4.70;4.07;;;;;;;;;;5010707;28;20649;-83
2022/06/05 11:33:33;;;;;;;4.97;3.88;;;;;;;;;;5010664;28;20241;-82
2022/06/05 11:36:09;;;;;;;4.60;4.20;;;;;;;;;;5009915;28;20316;-82
2022/06/05 11:38:43;;;;;;;4.28;3.78;;;;;;;;;;5016876;28;20203;-84
2022/06/05 11:41:23;;;;;;;4.70;3.78;;;;;;;;;;5030984;28;20194;-84
2022/06/05 11:44:08;;;;;;;4.13;3.30;;;;;;;;;;5030138;28;20189;-84
2022/06/05 11:46:39;;;;;;;5.38;3.30;;;;;;;;;;5030396;28;20194;-84
2022/06/05 11:49:12;;;;;;;8.27;3.63;;;;;;;;;;5029403;28;20187;-82
2022/06/05 11:51:59;;;;;;;5.10;4.18;;;;;;;;;;5029938;28;20268;-83
2022/06/05 11:54:28;;;;;;;4.85;4.03;;;;;;;;;;5029669;28;20240;-83
2022/06/05 11:57:04;;;;;;;6.97;3.50;;;;;;;;;;5029969;28;20587;-84
2022/06/05 11:59:39;;;;;;;3.80;3.50;;;;;;;;;;5029117;28;20187;-83
2022/06/05 12:02:25;;;;;;;3.33;2.88;;;;;;;;;;5029994;28;20209;-83
2022/06/05 12:04:57;;;;;;;4.82;3.20;;;;;;;;;;5029765;28;20187;-83
2022/06/05 12:07:26;;;;;;;4.75;2.80;;;;;;;;;;5027231;28;20203;-82
2022/06/05 12:09:55;;;;;;;4.07;3.00;;;;;;;;;;5029617;28;20206;-83
2022/06/05 12:12:25;;;;;;;2.95;2.50;;;;;;;;;;5029351;28;20214;-82
2022/06/05 12:15:00;;;;;;;4.82;2.80;;;;;;;;;;5029072;28;20226;-82
2022/06/05 12:17:31;;;;;;;9.30;3.10;;;;;;;;;;5029671;28;20247;-82
2022/06/05 12:20:02;;;;;;;4.03;2.65;;;;;;;;;;5029236;28;20197;-83
2022/06/05 12:22:33;;;;;;;3.95;2.78;;;;;;;;;;5029056;28;20194;-83
2022/06/05 12:25:05;;;;;;;4.80;2.60;;;;;;;;;;5029291;28;20183;-83
2022/06/05 12:27:45;;;;;;;2.60;2.40;;;;;;;;;;5029113;28;20194;-82
2022/06/05 12:30:21;;;;;;;3.85;2.55;;;;;;;;;;5029409;28;20555;-83
2022/06/05 12:32:54;;;;;;;5.20;2.95;;;;;;;;;;5029003;28;20191;-83
2022/06/05 12:35:24;;;;;;;3.30;2.47;;;;;;;;;;5029138;28;20232;-82
2022/06/05 12:37:59;;;;;;;4.38;3.00;;;;;;;;;;5029030;28;20179;-84
2022/06/05 12:40:33;;;;;;;7.90;3.42;;;;;;;;;;5028903;28;20292;-82
2022/06/05 12:43:05;;;;;;;3.42;3.13;;;;;;;;;;5028871;28;20182;-83
2022/06/05 12:45:34;;;;;;;4.15;3.13;;;;;;;;;;5028783;28;20198;-82
2022/06/05 12:48:09;;;;;;;3.75;2.75;;;;;;;;;;5028744;28;20199;-83
2022/06/05 12:50:56;;;;;;;4.95;2.83;;;;;;;;;;5028701;28;20241;-82
2022/06/05 12:53:34;;;;;;;3.05;2.65;;;;;;;;;;5028382;28;20194;-83
2022/06/05 12:56:11;;;;;;;4.07;2.90;;;;;;;;;;5028566;28;20203;-83
2022/06/05 12:58:48;;;;;;;3.45;3.22;;;;;;;;;;5028396;28;20208;-83
2022/06/05 13:01:20;;;;;;;4.85;2.88;;;;;;;;;;5028858;28;20182;-82
2022/06/05 13:03:52;;;;;;;3.83;3.00;;;;;;;;;;5028279;28;20179;-82
2022/06/05 13:06:30;;;;;;;5.28;3.13;;;;;;;;;;5028450;28;20632;-83
2022/06/05 13:09:01;;;;;;;8.55;3.67;;;;;;;;;;5028387;28;20247;-82
2022/06/05 13:11:31;;;;;;;2.85;2.53;;;;;;;;;;5028822;28;20194;-82
2022/06/05 13:14:06;;;;;;;4.65;2.92;;;;;;;;;;5028300;28;20244;-82
2022/06/05 13:16:39;;;;;;;3.28;2.97;;;;;;;;;;5028618;28;20698;-82
2022/06/05 13:19:31;;;;;;;3.08;2.78;;;;;;;;;;5028140;28;20187;-82
2022/06/05 13:22:07;;;;;;;3.20;2.72;;;;;;;;;;5028360;28;20639;-83
2022/06/05 13:24:40;;;;;;;4.78;2.88;;;;;;;;;;5028331;28;20190;-82
2022/06/05 13:27:17;;;;;;;4.53;3.08;;;;;;;;;;5028181;28;20187;-83
2022/06/05 13:29:53;;;;;;;3.85;2.70;;;;;;;;;;5027890;28;20175;-83
2022/06/05 13:32:30;;;;;;;7.88;2.60;;;;;;;;;;5028079;28;20663;-82
2022/06/05 13:35:02;;;;;;;4.50;3.10;;;;;;;;;;5028247;28;20197;-84
2022/06/05 13:37:34;;;;;;;3.95;2.80;;;;;;;;;;5028579;28;20195;-84
2022/06/05 13:40:06;;;;;;;4.40;3.60;;;;;;;;;;5028376;28;20640;-84
2022/06/05 13:42:35;;;;;;;3.03;2.83;;;;;;;;;;5028147;28;20215;-84
2022/06/05 13:45:06;;;;;;;4.00;3.40;;;;;;;;;;5027771;28;20675;-83
2022/06/05 13:47:43;;;;;;;3.65;3.35;;;;;;;;;;5028215;28;20663;-82
2022/06/05 13:50:25;;;;;;;3.50;3.20;;;;;;;;;;5028326;28;20199;-83
2022/06/05 13:52:54;;;;;;;6.20;2.70;;;;;;;;;;5028823;28;20277;-87
2022/06/05 13:55:25;;;;;;;3.38;3.08;;;;;;;;;;5028686;28;20237;-86
2022/06/05 13:57:56;;;;;;;2.78;2.58;;;;;;;;;;5028422;28;20639;-83
2022/06/05 14:00:26;;;;;;;8.10;4.03;;;;;;;;;;5028552;28;20194;-85
2022/06/05 14:03:06;;;;;;;3.90;2.70;;;;;;;;;;5028729;28;20263;-85
2022/06/05 14:05:38;;;;;;;6.00;3.42;;;;;;;;;;5024667;28;20286;-85
2022/06/05 14:08:09;;;;;;;3.15;2.45;;;;;;;;;;5009048;28;20188;-85
2022/06/05 14:10:53;;;;;;;3.67;2.80;;;;;;;;;;5008781;28;20267;-85
2022/06/05 14:13:21;;;;;;;2.67;2.47;;;;;;;;;;5008612;28;20195;-84
2022/06/05 14:15:50;;;;;;;2.78;2.55;;;;;;;;;;5008746;28;20298;-85
2022/06/05 14:18:26;;;;;;;4.18;3.00;;;;;;;;;;5008798;28;20668;-87
2022/06/05 14:20:57;;;;;;;4.05;2.95;;;;;;;;;;5009494;28;20268;-86
2022/06/05 14:23:25;;;;;;;4.50;3.00;;;;;;;;;;5031021;28;20548;-85
2022/06/05 14:25:53;;;;;;;3.03;2.83;;;;;;;;;;5031804;28;20203;-85
2022/06/05 14:28:23;;;;;;;7.50;3.13;;;;;;;;;;5032163;28;20203;-85
2022/06/05 14:30:55;;;;;;;3.33;2.90;;;;;;;;;;5031939;28;20285;-85
2022/06/05 14:33:29;;;;;;;3.03;2.72;;;;;;;;;;5032181;28;20203;-85
2022/06/05 14:35:56;;;;;;;3.08;2.72;;;;;;;;;;5032137;28;20593;-85
2022/06/05 14:38:29;;;;;;;2.65;2.45;;;;;;;;;;5031418;28;20727;-84
2022/06/05 14:41:02;;;;;;;6.10;2.38;;;;;;;;;;5032010;28;20659;-84
2022/06/05 14:43:32;;;;;;;3.80;2.65;;;;;;;;;;5031702;28;20644;-85
2022/06/05 14:46:16;;;;;;;3.50;2.80;;;;;;;;;;5031825;28;20674;-84
2022/06/05 14:48:48;;;;;;;3.53;2.80;;;;;;;;;;5031470;28;20179;-83
2022/06/05 14:51:20;;;;;;;4.85;2.65;;;;;;;;;;5031297;28;20226;-84
2022/06/05 14:53:55;;;;;;;5.47;2.50;;;;;;;;;;5031706;28;20187;-84
2022/06/05 14:59:17;;;;;;;2.65;2.45;;;;;;;;;;5030987;28;20187;-85
2022/06/05 15:01:49;;;;;;;3.67;3.03;;;;;;;;;;5031182;28;20187;-84
2022/06/05 15:04:25;;;;;;;3.00;2.80;;;;;;;;;;5031206;28;20269;-84
2022/06/05 15:06:57;;;;;;;5.60;2.50;;;;;;;;;;5031005;28;20183;-84
2022/06/05 15:09:28;;;;;;;6.28;2.80;;;;;;;;;;5029991;28;20772;-84
2022/06/05 15:11:59;;;;;;;2.72;2.53;;;;;;;;;;5031009;28;20236;-84
2022/06/05 15:14:32;;;;;;;3.90;2.78;;;;;;;;;;5028625;28;20209;-83
2022/06/05 15:17:09;;;;;;;4.13;2.95;;;;;;;;;;5031243;28;20211;-85
2022/06/05 15:19:38;;;;;;;3.72;2.83;;;;;;;;;;5031352;28;20186;-85
2022/06/05 15:22:31;;;;;;;4.13;2.47;;;;;;;;;;5031379;28;20194;-84
2022/06/05 15:25:02;;;;;;;4.00;3.17;;;;;;;;;;5030921;28;20672;-85
2022/06/05 15:27:38;;;;;;;4.40;2.90;;;;;;;;;;5031307;28;20235;-84
2022/06/05 15:30:12;;;;;;;5.55;2.72;;;;;;;;;;5029716;28;20222;-85
2022/06/05 15:32:48;;;;;;;4.85;2.92;;;;;;;;;;5025888;28;20199;-85
2022/06/05 15:35:22;;;;;;;4.70;3.17;;;;;;;;;;5012723;28;20276;-83